Rockingham, United Kingdom
Current Conditions -  °F | °C
As of 11:50 AM on Tuesday 27 Jan 2015 (Local Time) from EGXT Reporting Station
Broken Clouds Broken Clouds  
Wind Chill: 40°   Ceiling: 1900
Heat Index: 46°   Visibility: 6mi
Dew Point: 41°   Wind: 15mph
Humidity: 81%   Direction: 290°WNW
Pressure: 30.27"   Gusts: NA
Location:  52.52°N, 0.72°W
Report Text: EGXT 271150Z 29013KT 9999 BKN019 08/05 Q1025 WHT
Loading
Personal Weather Stations






























Interactive Weather Map New forecast layout! Learn more

10-Day Weather Forecast

Advertisements
Track Severe Weather on mobile